createdAt,value
2023-04-16T00:02:28.276Z,77.38
2023-04-16T00:05:06.046Z,77.61
2023-04-16T00:07:36.365Z,77.78
2023-04-16T00:10:11.929Z,78.05
2023-04-16T00:12:48.983Z,77.96
2023-04-16T00:15:26.284Z,78.55
2023-04-16T00:18:03.365Z,78.40
2023-04-16T00:20:40.023Z,78.32
2023-04-16T00:23:17.201Z,78.35
2023-04-16T00:26:00.933Z,78.49
2023-04-16T00:28:37.566Z,78.54
2023-04-16T00:31:14.476Z,78.72
2023-04-16T00:33:51.820Z,79.18
2023-04-16T00:36:31.702Z,79.35
2023-04-16T00:39:08.992Z,79.22
2023-04-16T00:41:47.036Z,79.57
2023-04-16T00:44:17.779Z,79.71
2023-04-16T00:46:53.120Z,79.32
2023-04-16T00:49:31.928Z,79.48
2023-04-16T00:52:04.181Z,80.11
2023-04-16T00:54:43.154Z,79.59
2023-04-16T00:57:21.717Z,79.48
2023-04-16T00:59:59.553Z,79.59
2023-04-16T01:02:37.286Z,79.42
2023-04-16T01:05:14.992Z,79.46
2023-04-16T01:07:52.060Z,79.84
2023-04-16T01:10:29.534Z,79.64
2023-04-16T01:13:07.244Z,79.31
2023-04-16T01:15:38.037Z,79.91
2023-04-16T01:18:27.101Z,79.72
2023-04-16T01:20:57.584Z,79.20
2023-04-16T01:23:34.364Z,79.24
2023-04-16T01:26:04.539Z,79.03
2023-04-16T01:28:42.671Z,78.92
2023-04-16T01:31:20.131Z,78.98
2023-04-16T01:33:57.151Z,78.91
2023-04-16T01:36:33.788Z,78.82
2023-04-16T01:39:16.107Z,78.84
2023-04-16T01:41:52.642Z,78.72
2023-04-16T01:44:31.187Z,78.91
2023-04-16T01:47:10.010Z,78.79
2023-04-16T01:49:48.566Z,79.13
2023-04-16T01:52:25.554Z,79.14
2023-04-16T01:55:02.608Z,79.29
2023-04-16T01:57:40.625Z,79.19
2023-04-16T02:00:19.382Z,79.51
2023-04-16T02:02:53.526Z,79.16
2023-04-16T02:05:31.119Z,79.10
2023-04-16T02:08:11.702Z,78.91
2023-04-16T02:10:51.569Z,78.93
2023-04-16T02:13:28.423Z,78.78
2023-04-16T02:16:05.736Z,78.58
2023-04-16T02:18:42.354Z,78.48
2023-04-16T02:21:20.505Z,78.45
2023-04-16T02:23:57.771Z,78.50
2023-04-16T02:26:35.361Z,78.66
2023-04-16T02:29:12.486Z,79.17
2023-04-16T02:31:50.144Z,79.30
2023-04-16T02:34:27.161Z,79.16
2023-04-16T02:37:04.675Z,79.38
2023-04-16T02:39:43.169Z,79.33
2023-04-16T02:42:15.137Z,79.59
2023-04-16T02:44:51.968Z,79.25
2023-04-16T02:47:29.959Z,79.43
2023-04-16T02:50:08.437Z,79.01
2023-04-16T02:52:46.321Z,79.32
2023-04-16T02:55:23.214Z,79.18
2023-04-16T02:58:00.328Z,79.05
2023-04-16T03:00:37.379Z,78.96
2023-04-16T03:03:14.876Z,78.79
2023-04-16T03:05:52.119Z,78.79
2023-04-16T03:08:29.720Z,79.08
2023-04-16T03:11:07.819Z,78.94
2023-04-16T03:13:45.158Z,78.94
2023-04-16T03:16:23.846Z,78.91
2023-04-16T03:18:56.490Z,78.96
2023-04-16T03:21:34.883Z,78.63
2023-04-16T03:24:12.149Z,78.78
2023-04-16T03:26:49.244Z,78.90
2023-04-16T03:29:26.993Z,78.61
2023-04-16T03:32:04.762Z,78.64
2023-04-16T03:34:42.327Z,78.59
2023-04-16T03:37:18.905Z,78.65
2023-04-16T03:39:56.627Z,78.53
2023-04-16T03:42:33.874Z,78.64
2023-04-16T03:45:11.986Z,78.54
2023-04-16T03:47:53.319Z,78.42
2023-04-16T03:50:31.700Z,78.40
2023-04-16T03:53:09.713Z,78.25
2023-04-16T03:55:46.397Z,78.30
2023-04-16T03:58:25.161Z,78.53
2023-04-16T04:00:57.262Z,78.50
2023-04-16T04:03:34.961Z,78.36
2023-04-16T04:06:16.467Z,78.43
2023-04-16T04:08:53.091Z,78.22
2023-04-16T04:11:30.786Z,78.30
2023-04-16T04:14:08.848Z,78.24
2023-04-16T04:16:46.204Z,78.06
2023-04-16T04:19:23.422Z,78.29
2023-04-16T04:22:00.365Z,78.26
2023-04-16T04:24:40.075Z,78.25
2023-04-16T04:27:16.740Z,78.01
2023-04-16T04:29:54.077Z,77.80
2023-04-16T04:32:31.386Z,77.87
2023-04-16T04:35:08.713Z,78.13
2023-04-16T04:37:46.484Z,78.09
2023-04-16T04:40:18.502Z,78.15
2023-04-16T04:42:56.444Z,78.41
2023-04-16T04:45:33.112Z,78.31
2023-04-16T04:48:11.054Z,77.96
2023-04-16T04:50:49.032Z,77.56
2023-04-16T04:53:26.390Z,77.38
2023-04-16T04:56:12.348Z,77.46
2023-04-16T04:58:56.346Z,77.01
2023-04-16T05:01:27.306Z,76.84
2023-04-16T05:04:05.331Z,76.60
2023-04-16T05:06:42.688Z,76.89
2023-04-16T05:09:20.258Z,76.66
2023-04-16T05:11:57.893Z,76.98
2023-04-16T05:14:36.564Z,76.77
2023-04-16T05:17:13.647Z,76.45
2023-04-16T05:19:50.885Z,76.41
2023-04-16T05:22:28.204Z,76.09
2023-04-16T05:25:00.094Z,75.86
2023-04-16T05:27:38.672Z,76.03
2023-04-16T05:30:16.311Z,76.41
2023-04-16T05:32:54.309Z,76.13
2023-04-16T05:35:30.824Z,75.90
2023-04-16T05:38:08.882Z,75.44
2023-04-16T05:40:45.720Z,75.12
2023-04-16T05:43:23.199Z,74.63
2023-04-16T05:46:00.322Z,74.34
2023-04-16T05:48:37.381Z,74.46
2023-04-16T05:51:14.203Z,74.85
2023-04-16T05:53:51.711Z,74.68
2023-04-16T05:56:28.851Z,73.95
2023-04-16T05:59:00.826Z,74.20
2023-04-16T06:01:40.574Z,74.05
2023-04-16T06:04:19.090Z,74.54
2023-04-16T06:06:56.356Z,74.05
2023-04-16T06:09:33.903Z,74.05
2023-04-16T06:12:12.184Z,73.25
2023-04-16T06:14:49.278Z,73.71
2023-04-16T06:17:27.835Z,74.04
2023-04-16T06:20:05.469Z,74.01
2023-04-16T06:22:42.536Z,73.41
2023-04-16T06:25:20.572Z,73.59
2023-04-16T06:27:58.885Z,73.96
2023-04-16T06:30:37.724Z,74.27
2023-04-16T06:33:16.319Z,74.57
2023-04-16T06:35:53.563Z,74.76
2023-04-16T06:38:31.637Z,74.28
2023-04-16T06:41:11.760Z,74.18
2023-04-16T06:43:51.428Z,73.50
2023-04-16T06:46:30.730Z,73.79
2023-04-16T06:49:02.588Z,73.58
2023-04-16T06:51:40.381Z,72.98
2023-04-16T06:54:18.412Z,73.05
2023-04-16T06:56:57.109Z,72.60
2023-04-16T06:59:35.019Z,72.62
2023-04-16T07:02:13.892Z,73.14
2023-04-16T07:04:52.784Z,73.39
2023-04-16T07:07:30.148Z,73.30
2023-04-16T07:10:07.443Z,73.12
2023-04-16T07:12:45.116Z,73.03
2023-04-16T07:15:22.449Z,72.79
2023-04-16T07:18:00.496Z,73.63
2023-04-16T07:20:38.588Z,73.11
2023-04-16T07:23:16.354Z,72.76
2023-04-16T07:25:54.306Z,72.27
2023-04-16T07:28:32.885Z,71.69
2023-04-16T07:31:11.506Z,71.55
2023-04-16T07:33:44.280Z,71.52
2023-04-16T07:36:23.741Z,71.28
2023-04-16T07:39:01.355Z,70.98
2023-04-16T07:41:41.121Z,71.05
2023-04-16T07:44:19.215Z,70.62
2023-04-16T07:46:58.162Z,70.58
2023-04-16T07:49:35.726Z,70.33
2023-04-16T07:52:13.927Z,70.26
2023-04-16T07:54:52.424Z,70.25
2023-04-16T07:57:31.478Z,70.06
2023-04-16T08:00:11.040Z,70.34
2023-04-16T08:02:49.399Z,70.16
2023-04-16T08:05:27.695Z,69.51
2023-04-16T08:08:05.919Z,69.69
2023-04-16T08:10:44.424Z,69.82
2023-04-16T08:13:23.221Z,69.61
2023-04-16T08:16:01.430Z,69.56
2023-04-16T08:18:41.090Z,69.11
2023-04-16T08:21:19.023Z,69.30
2023-04-16T08:23:58.163Z,68.96
2023-04-16T08:26:36.731Z,68.58
2023-04-16T08:29:16.411Z,68.57
2023-04-16T08:31:53.939Z,68.07
2023-04-16T08:34:25.365Z,67.28
2023-04-16T08:37:03.801Z,67.71
2023-04-16T08:39:42.461Z,67.71
2023-04-16T08:42:37.291Z,67.17
2023-04-16T08:45:20.897Z,67.20
2023-04-16T08:47:59.590Z,67.25
2023-04-16T08:50:37.840Z,66.40
2023-04-16T08:53:19.783Z,66.81
2023-04-16T08:56:01.894Z,66.01
2023-04-16T08:58:41.149Z,66.35
2023-04-16T09:01:11.829Z,65.81
2023-04-16T09:03:48.875Z,65.72
2023-04-16T09:06:27.033Z,65.62
2023-04-16T09:09:06.363Z,65.81
2023-04-16T09:11:46.181Z,65.42
2023-04-16T09:14:25.225Z,65.31
2023-04-16T09:17:04.411Z,65.91
2023-04-16T09:19:42.729Z,65.34
2023-04-16T09:22:21.660Z,64.81
2023-04-16T09:24:59.171Z,64.58
2023-04-16T09:27:37.943Z,64.35
2023-04-16T09:30:32.319Z,64.40
2023-04-16T09:33:24.654Z,64.68
2023-04-16T09:36:03.397Z,64.59
2023-04-16T09:38:56.937Z,64.39
2023-04-16T09:41:40.257Z,63.56
2023-04-16T09:44:18.503Z,63.21
2023-04-16T09:46:56.188Z,63.38
2023-04-16T09:49:43.398Z,62.71
2023-04-16T09:52:26.735Z,62.70
2023-04-16T09:55:04.889Z,62.94
2023-04-16T09:57:43.868Z,62.89
2023-04-16T10:00:24.957Z,61.54
2023-04-16T10:03:07.876Z,61.44
2023-04-16T10:05:46.265Z,60.90
2023-04-16T10:08:25.683Z,61.41
2023-04-16T10:11:04.040Z,60.82
2023-04-16T10:13:41.900Z,61.10
2023-04-16T10:16:19.877Z,60.91
2023-04-16T10:18:58.285Z,61.68
2023-04-16T10:21:36.561Z,61.47
2023-04-16T10:24:17.219Z,60.47
2023-04-16T10:26:56.298Z,60.91
2023-04-16T10:29:35.107Z,60.84
2023-04-16T10:32:13.952Z,61.17
2023-04-16T10:34:52.343Z,60.83
2023-04-16T10:37:39.238Z,60.29
2023-04-16T10:40:30.032Z,60.79
2023-04-16T10:43:09.124Z,60.81
2023-04-16T10:45:47.489Z,61.09
2023-04-16T10:48:42.136Z,60.75
2023-04-16T10:51:37.942Z,60.47
2023-04-16T10:54:15.848Z,60.36
2023-04-16T10:56:54.819Z,60.58
2023-04-16T10:59:35.499Z,59.95
2023-04-16T11:02:20.479Z,59.63
2023-04-16T11:05:00.760Z,60.02
2023-04-16T11:07:50.051Z,59.04
2023-04-16T11:10:28.797Z,58.61
2023-04-16T11:13:10.052Z,58.63
2023-04-16T11:15:40.676Z,58.27
2023-04-16T11:18:23.572Z,58.59
2023-04-16T11:21:02.429Z,58.45
2023-04-16T11:23:52.101Z,58.16
2023-04-16T11:26:31.115Z,58.12
2023-04-16T11:29:17.724Z,57.91
2023-04-16T11:32:00.204Z,58.45
2023-04-16T11:34:46.948Z,58.33
2023-04-16T11:37:39.203Z,57.55
2023-04-16T11:40:17.324Z,58.10
2023-04-16T11:42:54.868Z,58.46
2023-04-16T11:45:32.445Z,58.15
2023-04-16T11:48:11.346Z,56.75
2023-04-16T11:50:59.108Z,56.60
2023-04-16T11:53:38.325Z,55.99
2023-04-16T11:56:16.750Z,55.37
2023-04-16T11:59:21.416Z,55.72
2023-04-16T12:02:01.112Z,55.23
2023-04-16T12:04:41.165Z,53.46
2023-04-16T12:07:20.869Z,54.16
2023-04-16T12:10:07.216Z,54.07
2023-04-16T12:12:46.470Z,54.37
2023-04-16T12:15:24.664Z,53.77
2023-04-16T12:18:24.666Z,54.18
2023-04-16T12:21:09.686Z,53.59
2023-04-16T12:23:56.856Z,53.89
2023-04-16T12:27:03.526Z,52.89
2023-04-16T12:29:42.268Z,53.09
2023-04-16T12:32:36.567Z,51.53
2023-04-16T12:35:32.097Z,51.92
2023-04-16T12:38:12.310Z,51.98
2023-04-16T12:40:50.536Z,52.15
2023-04-16T12:43:26.808Z,52.35
2023-04-16T12:46:05.218Z,52.24
2023-04-16T12:48:44.034Z,52.71
2023-04-16T12:51:23.470Z,52.97
2023-04-16T12:54:02.681Z,52.17
2023-04-16T12:56:42.052Z,52.41
2023-04-16T12:59:13.518Z,52.41
2023-04-16T13:01:52.075Z,52.37
2023-04-16T13:04:29.755Z,52.05
2023-04-16T13:07:08.671Z,52.21
2023-04-16T13:09:47.155Z,51.17
2023-04-16T13:12:25.669Z,51.48
2023-04-16T13:15:03.963Z,51.49
2023-04-16T13:17:42.827Z,51.65
2023-04-16T13:20:23.880Z,50.32
2023-04-16T13:23:09.437Z,50.12
2023-04-16T13:25:50.574Z,50.58
2023-04-16T13:28:29.659Z,50.61
2023-04-16T13:31:08.420Z,50.99
2023-04-16T13:33:48.077Z,50.90
2023-04-16T13:36:28.094Z,51.54
2023-04-16T13:39:11.970Z,50.43
2023-04-16T13:41:51.995Z,49.90
2023-04-16T13:44:30.251Z,49.78
2023-04-16T13:47:08.910Z,49.99
2023-04-16T13:49:48.360Z,49.89
2023-04-16T13:52:27.310Z,49.49
2023-04-16T13:55:00.149Z,48.65
2023-04-16T13:57:40.671Z,49.60
2023-04-16T14:00:20.088Z,49.30
2023-04-16T14:02:58.989Z,49.94
2023-04-16T14:05:37.561Z,50.18
2023-04-16T14:08:16.827Z,50.60
2023-04-16T14:10:55.745Z,50.19
2023-04-16T14:13:34.375Z,50.81
2023-04-16T14:16:13.264Z,50.70
2023-04-16T14:18:52.511Z,50.99
2023-04-16T14:21:31.573Z,51.05
2023-04-16T14:24:10.901Z,52.55
2023-04-16T14:26:49.866Z,52.98
2023-04-16T14:29:27.895Z,52.70
2023-04-16T14:32:07.961Z,52.54
2023-04-16T14:34:48.323Z,52.12
2023-04-16T14:37:26.904Z,52.05
2023-04-16T14:40:08.609Z,51.67
2023-04-16T14:42:46.925Z,52.24
2023-04-16T14:45:30.366Z,53.13
2023-04-16T14:48:09.341Z,52.83
2023-04-16T14:50:47.612Z,52.02
2023-04-16T14:53:27.624Z,52.09
2023-04-16T14:56:04.759Z,52.23
2023-04-16T14:58:40.577Z,51.79
2023-04-16T15:01:19.209Z,51.52
2023-04-16T15:03:58.264Z,51.88
2023-04-16T15:06:39.773Z,52.58
2023-04-16T15:09:18.524Z,52.32
2023-04-16T15:11:59.241Z,52.94
2023-04-16T15:14:37.539Z,52.61
2023-04-16T15:17:15.831Z,53.35
2023-04-16T15:19:54.012Z,53.77
2023-04-16T15:22:33.043Z,54.08
2023-04-16T15:25:13.491Z,54.18
2023-04-16T15:27:52.225Z,54.01
2023-04-16T15:30:30.565Z,54.47
2023-04-16T15:33:10.453Z,54.51
2023-04-16T15:35:51.339Z,54.30
2023-04-16T15:38:31.413Z,54.78
2023-04-16T15:41:10.002Z,55.18
2023-04-16T15:43:49.508Z,55.29
2023-04-16T15:46:28.972Z,55.16
2023-04-16T15:49:06.713Z,55.18
2023-04-16T15:51:44.815Z,55.19
2023-04-16T15:54:24.592Z,56.11
2023-04-16T15:57:03.300Z,57.08
2023-04-16T15:59:43.557Z,57.60
2023-04-16T16:02:25.482Z,57.84
2023-04-16T16:05:04.257Z,58.32
2023-04-16T16:07:42.928Z,57.65
2023-04-16T16:10:21.378Z,58.11
2023-04-16T16:13:05.669Z,58.50
2023-04-16T16:15:43.738Z,58.31
2023-04-16T16:18:22.957Z,58.36
2023-04-16T16:21:02.799Z,58.74
2023-04-16T16:23:40.722Z,58.42
2023-04-16T16:26:21.288Z,59.05
2023-04-16T16:29:02.092Z,59.12
2023-04-16T16:31:37.932Z,58.98
2023-04-16T16:34:20.819Z,59.56
2023-04-16T16:37:02.654Z,59.39
2023-04-16T16:39:41.938Z,59.82
2023-04-16T16:42:21.133Z,60.29
2023-04-16T16:45:00.827Z,60.75
2023-04-16T16:47:43.473Z,60.85
2023-04-16T16:50:21.999Z,61.15
2023-04-16T16:53:02.435Z,61.10
2023-04-16T16:55:41.332Z,61.41
2023-04-16T16:58:19.404Z,61.34
2023-04-16T17:00:57.296Z,61.64
2023-04-16T17:03:36.116Z,61.26
2023-04-16T17:06:14.152Z,61.57
2023-04-16T17:08:52.618Z,61.89
2023-04-16T17:11:32.006Z,62.34
2023-04-16T17:14:11.339Z,62.45
2023-04-16T17:16:50.223Z,62.63
2023-04-16T17:19:30.299Z,62.89
2023-04-16T17:22:10.579Z,62.72
2023-04-16T17:24:50.205Z,63.20
2023-04-16T17:27:22.013Z,63.21
2023-04-16T17:30:02.265Z,63.11
2023-04-16T17:32:41.702Z,63.78
2023-04-16T17:35:20.144Z,63.75
2023-04-16T17:37:59.790Z,63.89
2023-04-16T17:40:40.401Z,63.62
2023-04-16T17:43:19.768Z,63.60
2023-04-16T17:45:59.776Z,63.65
2023-04-16T17:48:38.678Z,63.83
2023-04-16T17:51:19.548Z,64.52
2023-04-16T17:53:58.255Z,64.41
2023-04-16T17:56:36.624Z,64.77
2023-04-16T17:59:16.044Z,64.68
2023-04-16T18:01:57.049Z,65.44
2023-04-16T18:04:36.052Z,65.50
2023-04-16T18:07:14.308Z,65.88
2023-04-16T18:09:54.295Z,65.98
2023-04-16T18:12:34.238Z,66.36
2023-04-16T18:15:14.889Z,66.59
2023-04-16T18:17:54.697Z,66.53
2023-04-16T18:20:34.343Z,67.00
2023-04-16T18:23:15.246Z,67.28
2023-04-16T18:25:54.811Z,67.82
2023-04-16T18:28:30.736Z,67.49
2023-04-16T18:31:10.704Z,67.59
2023-04-16T18:33:57.591Z,67.70
2023-04-16T18:36:38.651Z,68.60
2023-04-16T18:39:17.079Z,68.02
2023-04-16T18:41:55.489Z,68.18
2023-04-16T18:44:34.729Z,68.16
2023-04-16T18:47:13.893Z,68.15
2023-04-16T18:50:01.259Z,68.15
2023-04-16T18:52:38.385Z,69.23
2023-04-16T18:55:17.404Z,69.23
2023-04-16T18:57:57.256Z,69.14
2023-04-16T19:00:35.989Z,69.91
2023-04-16T19:03:14.894Z,69.70
2023-04-16T19:05:54.427Z,69.89
2023-04-16T19:08:33.618Z,70.26
2023-04-16T19:11:19.942Z,70.83
2023-04-16T19:14:02.876Z,71.28
2023-04-16T19:16:44.692Z,71.04
2023-04-16T19:19:24.767Z,71.45
2023-04-16T19:22:04.546Z,71.46
2023-04-16T19:24:43.849Z,71.52
2023-04-16T19:27:22.689Z,71.77
2023-04-16T19:30:03.543Z,72.35
2023-04-16T19:32:43.283Z,72.92
2023-04-16T19:35:22.371Z,72.44
2023-04-16T19:38:01.719Z,72.20
2023-04-16T19:40:40.784Z,72.31
2023-04-16T19:43:19.294Z,72.06
2023-04-16T19:45:58.815Z,73.02
2023-04-16T19:48:37.717Z,73.13
2023-04-16T19:51:16.803Z,73.36
2023-04-16T19:53:54.842Z,73.69
2023-04-16T19:56:26.158Z,73.86
2023-04-16T19:59:04.664Z,73.72
2023-04-16T20:01:43.261Z,74.07
2023-04-16T20:04:15.544Z,74.19
2023-04-16T20:06:55.437Z,74.70
2023-04-16T20:09:35.332Z,74.48
2023-04-16T20:12:15.895Z,74.86
2023-04-16T20:14:55.706Z,74.85
2023-04-16T20:17:36.016Z,75.39
2023-04-16T20:20:16.900Z,75.23
2023-04-16T20:22:53.692Z,75.08
2023-04-16T20:25:33.931Z,75.34
2023-04-16T20:28:06.854Z,74.94
2023-04-16T20:30:45.492Z,75.61
2023-04-16T20:33:24.130Z,75.71
2023-04-16T20:36:04.752Z,75.76
2023-04-16T20:38:44.059Z,76.13
2023-04-16T20:41:25.674Z,76.19
2023-04-16T20:44:06.191Z,76.17
2023-04-16T20:46:44.575Z,76.62
2023-04-16T20:49:22.524Z,76.59
2023-04-16T20:52:02.586Z,76.71
2023-04-16T20:54:40.809Z,76.52
2023-04-16T20:57:18.801Z,76.87
2023-04-16T20:59:56.731Z,76.78
2023-04-16T21:02:35.814Z,77.04
2023-04-16T21:05:17.399Z,77.08
2023-04-16T21:07:55.903Z,76.84
2023-04-16T21:10:34.158Z,76.82
2023-04-16T21:13:13.436Z,77.32
2023-04-16T21:15:51.651Z,77.10
2023-04-16T21:18:29.789Z,76.71
2023-04-16T21:21:07.785Z,76.74
2023-04-16T21:23:46.266Z,77.19
2023-04-16T21:26:24.323Z,77.10
2023-04-16T21:29:02.345Z,77.13
2023-04-16T21:31:34.054Z,77.10
2023-04-16T21:34:08.740Z,77.21
2023-04-16T21:36:46.921Z,76.80
2023-04-16T21:39:28.064Z,76.33
2023-04-16T21:42:03.750Z,76.47
2023-04-16T21:44:42.223Z,76.56
2023-04-16T21:47:20.175Z,76.49
2023-04-16T21:49:58.435Z,76.65
2023-04-16T21:52:41.575Z,76.16
2023-04-16T21:55:19.111Z,75.78
2023-04-16T21:57:56.608Z,75.65
2023-04-16T22:00:34.530Z,75.55
2023-04-16T22:03:13.526Z,75.59
2023-04-16T22:05:52.131Z,75.79
2023-04-16T22:08:30.614Z,75.73
2023-04-16T22:11:09.062Z,76.04
2023-04-16T22:13:48.095Z,75.77
2023-04-16T22:16:29.110Z,76.01
2023-04-16T22:19:05.047Z,75.94
2023-04-16T22:21:43.322Z,75.88
2023-04-16T22:24:21.036Z,75.83
2023-04-16T22:26:59.978Z,75.96
2023-04-16T22:29:39.418Z,75.70
2023-04-16T22:32:10.274Z,75.97
2023-04-16T22:34:48.459Z,75.96
2023-04-16T22:37:26.637Z,75.74
2023-04-16T22:39:56.936Z,76.02
2023-04-16T22:42:33.807Z,76.17
2023-04-16T22:45:14.221Z,75.92
2023-04-16T22:47:51.639Z,75.94
2023-04-16T22:50:31.686Z,75.78
2023-04-16T22:53:10.177Z,75.82
2023-04-16T22:55:48.635Z,75.94
2023-04-16T22:58:19.466Z,75.84
2023-04-16T23:01:00.661Z,76.97
2023-04-16T23:03:31.046Z,76.74
2023-04-16T23:06:09.755Z,76.65
2023-04-16T23:08:47.419Z,76.74
2023-04-16T23:11:26.341Z,76.98
2023-04-16T23:14:05.413Z,76.76
2023-04-16T23:16:43.141Z,77.40
2023-04-16T23:19:21.549Z,77.40
2023-04-16T23:21:59.896Z,77.24
2023-04-16T23:24:36.990Z,77.87
2023-04-16T23:27:14.694Z,77.92
2023-04-16T23:29:52.316Z,77.66
2023-04-16T23:32:30.004Z,77.70
2023-04-16T23:35:10.152Z,77.72
2023-04-16T23:37:48.531Z,77.85
2023-04-16T23:40:19.431Z,78.17
2023-04-16T23:42:52.050Z,77.67
2023-04-16T23:45:30.974Z,77.32
2023-04-16T23:48:01.580Z,77.12
2023-04-16T23:50:39.858Z,77.87
2023-04-16T23:53:17.831Z,78.84
2023-04-16T23:55:55.413Z,79.02
2023-04-16T23:58:32.888Z,78.95
